createdAt,value
2023-05-08T00:22:49.997Z,1019.1
2023-05-08T00:52:49.991Z,1019.03
2023-05-08T01:22:50.013Z,1019.17
2023-05-08T01:52:50.027Z,1019.48
2023-05-08T02:22:50.017Z,1019.52
2023-05-08T02:52:50.015Z,1019.68
2023-05-08T03:22:50.031Z,1019.79
2023-05-08T03:52:50.018Z,1019.79
2023-05-08T04:22:50.052Z,1019.81
2023-05-08T04:52:50.038Z,1020.07
2023-05-08T05:22:50.067Z,1020.31
2023-05-08T05:52:50.042Z,1020.39
2023-05-08T06:22:50.041Z,1020.62
2023-05-08T06:52:50.039Z,1020.65
2023-05-08T07:22:50.044Z,1020.57
2023-05-08T07:52:50.483Z,1020.69
2023-05-08T08:22:50.052Z,1020.75
2023-05-08T08:52:50.091Z,1020.71
2023-05-08T09:22:50.093Z,1020.74
2023-05-08T09:52:50.085Z,1020.72
2023-05-08T10:22:50.073Z,1020.74
2023-05-08T10:52:50.092Z,1020.71
2023-05-08T11:22:50.088Z,1020.61
2023-05-08T11:52:50.088Z,1020.51
2023-05-08T12:22:50.120Z,1020.6
2023-05-08T12:52:51.596Z,1020.52
2023-05-08T13:22:50.109Z,1020.39
2023-05-08T13:52:51.075Z,1020.08
2023-05-08T14:22:52.565Z,1019.91
2023-05-08T14:52:50.130Z,1019.71
2023-05-08T15:22:50.124Z,1019.76
2023-05-08T15:52:50.141Z,1019.69
2023-05-08T16:22:50.120Z,1019.66
2023-05-08T16:52:50.158Z,1019.56
2023-05-08T17:22:50.139Z,1019.67
2023-05-08T17:52:50.145Z,1019.8
2023-05-08T18:22:50.162Z,1020.08
2023-05-08T18:52:50.154Z,1020.12
2023-05-08T19:22:50.160Z,1020.26
2023-05-08T19:52:50.171Z,1020.22
2023-05-08T20:22:50.159Z,1020.33
2023-05-08T20:52:50.168Z,1020.19
2023-05-08T21:22:50.182Z,1019.96
2023-05-08T21:52:50.178Z,1019.72
2023-05-08T22:22:50.191Z,1019.58
2023-05-08T22:52:50.193Z,1019.59
2023-05-08T23:22:50.199Z,1019.45
2023-05-08T23:52:50.196Z,1019.24
